createdAt,value
2023-04-26T00:00:01.529Z,1066.00
2023-04-26T00:01:00.495Z,1071.00
2023-04-26T00:02:00.463Z,1075.00
2023-04-26T00:03:00.679Z,1092.00
2023-04-26T00:04:00.581Z,1096.00
2023-04-26T00:05:00.561Z,1095.00
2023-04-26T00:06:00.358Z,1095.00
2023-04-26T00:07:00.297Z,1112.00
2023-04-26T00:08:00.317Z,1095.00
2023-04-26T00:09:00.363Z,1085.00
2023-04-26T00:10:00.398Z,1095.00
2023-04-26T00:11:00.429Z,1090.00
2023-04-26T00:12:00.469Z,1112.00
2023-04-26T00:13:00.531Z,1070.00
2023-04-26T00:14:00.523Z,1092.00
2023-04-26T00:15:00.576Z,1091.00
2023-04-26T00:16:00.653Z,1066.00
2023-04-26T00:17:00.601Z,1120.00
2023-04-26T00:18:00.618Z,1068.00
2023-04-26T00:19:00.648Z,1065.00
2023-04-26T00:20:00.676Z,1069.00
2023-04-26T00:21:00.721Z,1080.00
2023-04-26T00:22:00.750Z,1083.00
2023-04-26T00:23:00.794Z,1086.00
2023-04-26T00:24:00.840Z,1079.00
2023-04-26T00:25:00.870Z,1050.00
2023-04-26T00:26:00.904Z,1087.00
2023-04-26T00:27:00.886Z,1070.00
2023-04-26T00:28:00.889Z,1064.00
2023-04-26T00:29:00.910Z,1090.00
2023-04-26T00:30:01.171Z,1083.00
2023-04-26T00:31:00.905Z,1041.00
2023-04-26T00:32:01.038Z,1068.00
2023-04-26T00:33:01.043Z,1086.00
2023-04-26T00:34:00.972Z,1056.00
2023-04-26T00:35:00.962Z,1059.00
2023-04-26T00:36:00.969Z,1081.00
2023-04-26T00:37:00.964Z,1059.00
2023-04-26T00:38:00.986Z,1046.00
2023-04-26T00:39:01.003Z,1075.00
2023-04-26T00:40:01.904Z,1037.00
2023-04-26T00:41:01.044Z,1049.00
2023-04-26T00:42:01.077Z,1037.00
2023-04-26T00:43:01.085Z,1053.00
2023-04-26T00:44:01.088Z,1021.00
2023-04-26T00:45:01.196Z,1042.00
2023-04-26T00:46:01.159Z,1065.00
2023-04-26T00:47:01.103Z,1051.00
2023-04-26T00:48:01.168Z,1035.00
2023-04-26T00:49:01.128Z,1069.00
2023-04-26T00:50:01.137Z,1067.00
2023-04-26T00:51:01.110Z,1044.00
2023-04-26T00:52:01.138Z,1038.00
2023-04-26T00:53:01.140Z,1064.00
2023-04-26T00:54:01.138Z,1045.00
2023-04-26T00:55:01.158Z,1020.00
2023-04-26T00:56:01.208Z,1048.00
2023-04-26T00:57:01.214Z,1040.00
2023-04-26T00:58:01.178Z,1063.00
2023-04-26T00:59:01.168Z,1047.00
2023-04-26T01:00:01.187Z,1017.00
2023-04-26T01:01:01.256Z,1042.00
2023-04-26T01:02:01.174Z,1035.00
2023-04-26T01:03:01.278Z,1036.00
2023-04-26T01:04:01.285Z,1048.00
2023-04-26T01:05:01.117Z,1015.00
2023-04-26T01:06:01.135Z,1028.00
2023-04-26T01:07:01.121Z,1059.00
2023-04-26T01:08:01.132Z,1019.00
2023-04-26T01:09:01.128Z,1038.00
2023-04-26T01:10:01.123Z,1018.00
2023-04-26T01:11:01.109Z,1025.00
2023-04-26T01:12:01.088Z,1032.00
2023-04-26T01:13:01.063Z,1055.00
2023-04-26T01:14:01.034Z,1033.00
2023-04-26T01:15:01.241Z,1006.00
2023-04-26T01:16:00.982Z,1020.00
2023-04-26T01:17:01.023Z,1043.00
2023-04-26T01:18:00.997Z,1000.00
2023-04-26T01:19:00.920Z,1007.00
2023-04-26T01:20:00.915Z,982.00
2023-04-26T01:21:03.251Z,1030.00
2023-04-26T01:22:01.025Z,1036.00
2023-04-26T01:23:01.021Z,1028.00
2023-04-26T01:24:00.988Z,1035.00
2023-04-26T01:25:00.980Z,1015.00
2023-04-26T01:26:00.967Z,1006.00
2023-04-26T01:27:00.927Z,1017.00
2023-04-26T01:28:00.888Z,1009.00
2023-04-26T01:29:00.856Z,999.00
2023-04-26T01:30:01.065Z,1008.00
2023-04-26T01:31:00.899Z,989.00
2023-04-26T01:32:00.807Z,994.00
2023-04-26T01:33:01.398Z,1021.00
2023-04-26T01:34:00.747Z,983.00
2023-04-26T01:35:00.705Z,991.00
2023-04-26T01:36:00.668Z,976.00
2023-04-26T01:37:00.627Z,1014.00
2023-04-26T01:38:00.602Z,996.00
2023-04-26T01:39:00.598Z,988.00
2023-04-26T01:40:00.525Z,987.00
2023-04-26T01:41:00.500Z,974.00
2023-04-26T01:42:00.511Z,998.00
2023-04-26T01:43:00.489Z,995.00
2023-04-26T01:44:00.465Z,983.00
2023-04-26T01:45:00.410Z,996.00
2023-04-26T01:46:00.440Z,1017.00
2023-04-26T01:47:00.338Z,998.00
2023-04-26T01:48:00.344Z,1013.00
2023-04-26T01:49:00.284Z,999.00
2023-04-26T01:50:00.231Z,988.00
2023-04-26T01:51:00.200Z,994.00
2023-04-26T01:52:00.153Z,1011.00
2023-04-26T01:53:00.112Z,969.00
2023-04-26T01:54:00.117Z,985.00
2023-04-26T01:55:00.046Z,978.00
2023-04-26T01:56:00.019Z,980.00
2023-04-26T01:56:59.984Z,990.00
2023-04-26T01:57:59.955Z,984.00
2023-04-26T01:58:59.925Z,985.00
2023-04-26T01:59:59.885Z,984.00
2023-04-26T02:00:59.839Z,987.00
2023-04-26T02:01:59.863Z,942.00
2023-04-26T02:02:59.892Z,979.00
2023-04-26T02:03:59.735Z,963.00
2023-04-26T02:04:59.774Z,984.00
2023-04-26T02:05:59.656Z,984.00
2023-04-26T02:06:59.615Z,951.00
2023-04-26T02:07:59.590Z,976.00
2023-04-26T02:08:59.558Z,992.00
2023-04-26T02:09:59.516Z,981.00
2023-04-26T02:10:59.480Z,977.00
2023-04-26T02:11:59.455Z,964.00
2023-04-26T02:12:59.424Z,952.00
2023-04-26T02:13:59.397Z,954.00
2023-04-26T02:14:59.362Z,975.00
2023-04-26T02:15:59.442Z,956.00
2023-04-26T02:16:59.294Z,958.00
2023-04-26T02:17:59.316Z,971.00
2023-04-26T02:18:59.227Z,950.00
2023-04-26T02:19:59.205Z,967.00
2023-04-26T02:20:59.174Z,971.00
2023-04-26T02:21:59.134Z,973.00
2023-04-26T02:22:59.102Z,969.00
2023-04-26T02:23:59.076Z,939.00
2023-04-26T02:24:59.031Z,976.00
2023-04-26T02:25:58.995Z,971.00
2023-04-26T02:26:58.967Z,966.00
2023-04-26T02:27:58.933Z,966.00
2023-04-26T02:28:59.403Z,967.00
2023-04-26T02:29:58.867Z,952.00
2023-04-26T02:30:58.942Z,940.00
2023-04-26T02:31:58.951Z,960.00
2023-04-26T02:32:58.772Z,964.00
2023-04-26T02:33:58.896Z,937.00
2023-04-26T02:34:58.685Z,948.00
2023-04-26T02:35:58.644Z,950.00
2023-04-26T02:36:58.623Z,944.00
2023-04-26T02:37:58.581Z,947.00
2023-04-26T02:38:58.539Z,944.00
2023-04-26T02:39:58.553Z,947.00
2023-04-26T02:40:58.476Z,971.00
2023-04-26T02:41:58.453Z,926.00
2023-04-26T02:42:58.469Z,943.00
2023-04-26T02:43:58.358Z,933.00
2023-04-26T02:44:58.324Z,924.00
2023-04-26T02:45:58.288Z,960.00
2023-04-26T02:46:58.330Z,952.00
2023-04-26T02:47:58.238Z,951.00
2023-04-26T02:48:58.186Z,938.00
2023-04-26T02:49:58.136Z,962.00
2023-04-26T02:50:58.107Z,941.00
2023-04-26T02:51:58.081Z,920.00
2023-04-26T02:52:58.030Z,900.00
2023-04-26T02:53:58.006Z,940.00
2023-04-26T02:54:57.951Z,931.00
2023-04-26T02:55:57.918Z,934.00
2023-04-26T02:56:57.897Z,918.00
2023-04-26T02:57:57.868Z,932.00
2023-04-26T02:58:57.820Z,918.00
2023-04-26T02:59:57.792Z,936.00
2023-04-26T03:00:59.600Z,941.00
2023-04-26T03:01:57.751Z,898.00
2023-04-26T03:02:57.738Z,943.00
2023-04-26T03:03:57.790Z,940.00
2023-04-26T03:04:57.583Z,931.00
2023-04-26T03:05:57.534Z,935.00
2023-04-26T03:06:57.514Z,910.00
2023-04-26T03:07:57.462Z,915.00
2023-04-26T03:08:57.429Z,920.00
2023-04-26T03:09:57.396Z,924.00
2023-04-26T03:10:57.354Z,920.00
2023-04-26T03:11:57.322Z,913.00
2023-04-26T03:12:57.281Z,928.00
2023-04-26T03:13:57.255Z,925.00
2023-04-26T03:14:57.214Z,924.00
2023-04-26T03:15:57.160Z,909.00
2023-04-26T03:16:57.170Z,900.00
2023-04-26T03:17:57.121Z,916.00
2023-04-26T03:18:57.044Z,906.00
2023-04-26T03:19:57.006Z,919.00
2023-04-26T03:20:56.950Z,891.00
2023-04-26T03:21:56.913Z,929.00
2023-04-26T03:22:56.884Z,905.00
2023-04-26T03:23:56.836Z,891.00
2023-04-26T03:24:56.798Z,912.00
2023-04-26T03:25:56.746Z,914.00
2023-04-26T03:26:56.713Z,915.00
2023-04-26T03:27:56.673Z,874.00
2023-04-26T03:28:56.631Z,906.00
2023-04-26T03:29:56.927Z,910.00
2023-04-26T03:30:56.586Z,885.00
2023-04-26T03:31:56.527Z,904.00
2023-04-26T03:32:56.467Z,894.00
2023-04-26T03:33:56.421Z,904.00
2023-04-26T03:34:56.386Z,914.00
2023-04-26T03:35:56.339Z,906.00
2023-04-26T03:36:56.307Z,881.00
2023-04-26T03:37:58.613Z,903.00
2023-04-26T03:38:56.358Z,903.00
2023-04-26T03:39:56.338Z,903.00
2023-04-26T03:40:56.310Z,885.00
2023-04-26T03:41:56.296Z,893.00
2023-04-26T03:42:56.264Z,882.00
2023-04-26T03:43:56.235Z,882.00
2023-04-26T03:44:56.211Z,867.00
2023-04-26T03:45:56.230Z,894.00
2023-04-26T03:46:56.171Z,896.00
2023-04-26T03:47:56.167Z,854.00
2023-04-26T03:48:56.088Z,889.00
2023-04-26T03:49:56.070Z,879.00
2023-04-26T03:50:56.029Z,893.00
2023-04-26T03:51:55.999Z,886.00
2023-04-26T03:52:55.974Z,898.00
2023-04-26T03:53:55.932Z,887.00
2023-04-26T03:54:55.913Z,853.00
2023-04-26T03:55:55.879Z,881.00
2023-04-26T03:56:55.861Z,890.00
2023-04-26T03:57:55.830Z,862.00
2023-04-26T03:58:55.795Z,866.00
2023-04-26T03:59:55.762Z,884.00
2023-04-26T04:00:55.747Z,882.00
2023-04-26T04:01:55.846Z,862.00
2023-04-26T04:02:55.807Z,867.00
2023-04-26T04:03:55.944Z,872.00
2023-04-26T04:04:55.801Z,875.00
2023-04-26T04:05:55.587Z,839.00
2023-04-26T04:06:55.569Z,870.00
2023-04-26T04:07:55.541Z,875.00
2023-04-26T04:08:55.643Z,875.00
2023-04-26T04:09:55.496Z,837.00
2023-04-26T04:10:55.474Z,878.00
2023-04-26T04:11:55.431Z,864.00
2023-04-26T04:12:55.406Z,877.00
2023-04-26T04:13:55.378Z,861.00
2023-04-26T04:14:55.351Z,862.00
2023-04-26T04:15:55.372Z,863.00
2023-04-26T04:16:55.302Z,868.00
2023-04-26T04:17:55.356Z,865.00
2023-04-26T04:18:55.382Z,859.00
2023-04-26T04:19:55.234Z,857.00
2023-04-26T04:20:55.202Z,849.00
2023-04-26T04:21:55.192Z,857.00
2023-04-26T04:22:55.149Z,861.00
2023-04-26T04:23:55.234Z,848.00
2023-04-26T04:24:55.186Z,849.00
2023-04-26T04:25:55.166Z,858.00
2023-04-26T04:26:55.047Z,855.00
2023-04-26T04:27:55.018Z,843.00
2023-04-26T04:28:55.153Z,838.00
2023-04-26T04:29:54.971Z,851.00
2023-04-26T04:30:54.986Z,848.00
2023-04-26T04:31:54.930Z,853.00
2023-04-26T04:32:54.923Z,843.00
2023-04-26T04:33:54.861Z,850.00
2023-04-26T04:34:54.845Z,834.00
2023-04-26T04:35:54.812Z,839.00
2023-04-26T04:36:54.824Z,838.00
2023-04-26T04:37:54.772Z,830.00
2023-04-26T04:38:54.999Z,837.00
2023-04-26T04:39:54.739Z,829.00
2023-04-26T04:40:54.704Z,841.00
2023-04-26T04:41:54.681Z,837.00
2023-04-26T04:42:54.661Z,802.00
2023-04-26T04:43:54.652Z,830.00
2023-04-26T04:44:54.644Z,816.00
2023-04-26T04:45:54.592Z,838.00
2023-04-26T04:46:54.614Z,828.00
2023-04-26T04:47:54.607Z,829.00
2023-04-26T04:48:54.778Z,823.00
2023-04-26T04:49:54.498Z,814.00
2023-04-26T04:50:54.469Z,826.00
2023-04-26T04:51:54.446Z,824.00
2023-04-26T04:52:54.421Z,809.00
2023-04-26T04:53:54.400Z,814.00
2023-04-26T04:54:54.382Z,822.00
2023-04-26T04:55:54.351Z,814.00
2023-04-26T04:56:54.326Z,813.00
2023-04-26T04:57:54.302Z,807.00
2023-04-26T04:58:54.451Z,789.00
2023-04-26T04:59:54.242Z,813.00
2023-04-26T05:00:54.216Z,812.00
2023-04-26T05:01:54.255Z,809.00
2023-04-26T05:02:54.320Z,803.00
2023-04-26T05:03:54.452Z,815.00
2023-04-26T05:04:54.131Z,788.00
2023-04-26T05:05:54.080Z,795.00
2023-04-26T05:06:54.057Z,803.00
2023-04-26T05:07:54.022Z,787.00
2023-04-26T05:08:53.991Z,798.00
2023-04-26T05:09:53.984Z,791.00
2023-04-26T05:10:53.955Z,798.00
2023-04-26T05:11:53.927Z,800.00
2023-04-26T05:12:53.904Z,794.00
2023-04-26T05:13:54.162Z,801.00
2023-04-26T05:14:53.864Z,795.00
2023-04-26T05:15:53.914Z,783.00
2023-04-26T05:16:53.873Z,786.00
2023-04-26T05:17:53.841Z,786.00
2023-04-26T05:18:53.760Z,790.00
2023-04-26T05:19:53.757Z,771.00
2023-04-26T05:20:53.739Z,758.00
2023-04-26T05:21:53.696Z,782.00
2023-04-26T05:22:54.046Z,778.00
2023-04-26T05:23:53.911Z,797.00
2023-04-26T05:24:53.609Z,798.00
2023-04-26T05:25:53.634Z,823.00
2023-04-26T05:26:53.541Z,815.00
2023-04-26T05:27:53.531Z,856.00
2023-04-26T05:28:53.560Z,830.00
2023-04-26T05:29:53.555Z,871.00
2023-04-26T05:30:53.577Z,907.00
2023-04-26T05:31:53.605Z,964.00
2023-04-26T05:32:53.665Z,970.00
2023-04-26T05:33:54.684Z,987.00
2023-04-26T05:34:53.648Z,1065.00
2023-04-26T05:35:53.653Z,1083.00
2023-04-26T05:36:53.730Z,1112.00
2023-04-26T05:37:53.840Z,1147.00
2023-04-26T05:38:53.669Z,1180.00
2023-04-26T05:39:53.672Z,1198.00
2023-04-26T05:40:53.670Z,1228.00
2023-04-26T05:41:53.688Z,1247.00
2023-04-26T05:42:53.657Z,1284.00
2023-04-26T05:43:53.867Z,1309.00
2023-04-26T05:44:53.636Z,1340.00
2023-04-26T05:45:53.735Z,1353.00
2023-04-26T05:46:53.570Z,1355.00
2023-04-26T05:47:53.536Z,1364.00
2023-04-26T05:48:53.466Z,1392.00
2023-04-26T05:49:53.412Z,1449.00
2023-04-26T05:50:53.363Z,1543.00
2023-04-26T05:51:53.329Z,1607.00
2023-04-26T05:52:53.275Z,1634.00
2023-04-26T05:53:53.426Z,1655.00
2023-04-26T05:54:53.484Z,1682.00
2023-04-26T05:55:53.109Z,1716.00
2023-04-26T05:56:53.058Z,1733.00
2023-04-26T05:57:53.023Z,1766.00
2023-04-26T05:58:52.944Z,1798.00
2023-04-26T05:59:52.973Z,1810.00
2023-04-26T06:00:52.844Z,1849.00
2023-04-26T06:01:52.837Z,1884.00
2023-04-26T06:02:52.949Z,1875.00
2023-04-26T06:03:55.087Z,1915.00
2023-04-26T06:04:52.882Z,1918.00
2023-04-26T06:05:52.728Z,1924.00
2023-04-26T06:06:52.521Z,1945.00
2023-04-26T06:07:52.452Z,1973.00
2023-04-26T06:08:52.396Z,2050.00
2023-04-26T06:09:52.340Z,2090.00
2023-04-26T06:10:52.285Z,2122.00
2023-04-26T06:11:52.224Z,2133.00
2023-04-26T06:12:52.169Z,2192.00
2023-04-26T06:13:52.279Z,2261.00
2023-04-26T06:14:52.057Z,2275.00
2023-04-26T06:15:51.992Z,2284.00
2023-04-26T06:16:52.965Z,2286.00
2023-04-26T06:17:51.963Z,2296.00
2023-04-26T06:18:51.901Z,2316.00
2023-04-26T06:19:51.789Z,2379.00
2023-04-26T06:20:51.757Z,2483.00
2023-04-26T06:21:51.781Z,2532.00
2023-04-26T06:22:51.613Z,2517.00
2023-04-26T06:23:52.673Z,2532.00
2023-04-26T06:24:51.508Z,2517.00
2023-04-26T06:25:51.451Z,2014.00
2023-04-26T06:26:51.380Z,1848.00
2023-04-26T06:27:51.332Z,1381.00
2023-04-26T06:28:51.353Z,1361.00
2023-04-26T06:29:51.292Z,1099.00
2023-04-26T06:30:51.331Z,890.00
2023-04-26T06:31:51.303Z,774.00
2023-04-26T06:32:51.390Z,682.00
2023-04-26T06:33:51.640Z,662.00
2023-04-26T06:34:51.384Z,663.00
2023-04-26T06:35:51.387Z,716.00
2023-04-26T06:36:51.393Z,772.00
2023-04-26T06:37:51.390Z,817.00
2023-04-26T06:38:51.376Z,853.00
2023-04-26T06:39:51.982Z,876.00
2023-04-26T06:40:51.914Z,906.00
2023-04-26T06:41:52.572Z,967.00
2023-04-26T06:42:51.320Z,984.00
2023-04-26T06:43:51.536Z,1012.00
2023-04-26T06:44:51.183Z,1022.00
2023-04-26T06:45:51.182Z,1069.00
2023-04-26T06:46:51.084Z,1113.00
2023-04-26T06:47:51.095Z,1128.00
2023-04-26T06:48:50.986Z,1124.00
2023-04-26T06:49:50.939Z,1177.00
2023-04-26T06:50:50.889Z,1198.00
2023-04-26T06:51:50.835Z,1228.00
2023-04-26T06:52:50.793Z,1253.00
2023-04-26T06:53:51.091Z,1301.00
2023-04-26T06:54:57.129Z,1337.00
2023-04-26T06:55:51.654Z,1340.00
2023-04-26T06:56:50.588Z,1352.00
2023-04-26T06:57:50.534Z,1386.00
2023-04-26T06:58:50.473Z,1446.00
2023-04-26T06:59:50.409Z,1515.00
2023-04-26T07:00:50.351Z,1570.00
2023-04-26T07:01:50.316Z,1587.00
2023-04-26T07:02:50.390Z,1609.00
2023-04-26T07:03:50.502Z,1623.00
2023-04-26T07:04:50.283Z,1638.00
2023-04-26T07:05:50.074Z,1639.00
2023-04-26T07:06:50.044Z,1671.00
2023-04-26T07:07:50.200Z,1685.00
2023-04-26T07:08:50.203Z,1724.00
2023-04-26T07:09:50.053Z,1745.00
2023-04-26T07:10:50.047Z,1796.00
2023-04-26T07:11:50.094Z,1813.00
2023-04-26T07:12:50.067Z,1864.00
2023-04-26T07:13:50.176Z,1902.00
2023-04-26T07:14:50.049Z,1958.00
2023-04-26T07:15:50.122Z,1906.00
2023-04-26T07:16:50.046Z,1907.00
2023-04-26T07:17:50.078Z,1937.00
2023-04-26T07:18:50.044Z,1988.00
2023-04-26T07:19:50.062Z,2001.00
2023-04-26T07:20:50.054Z,1989.00
2023-04-26T07:21:50.070Z,2007.00
2023-04-26T07:22:50.013Z,2033.00
2023-04-26T07:23:50.052Z,2019.00
2023-04-26T07:24:49.926Z,1983.00
2023-04-26T07:25:49.867Z,1966.00
2023-04-26T07:26:49.809Z,1958.00
2023-04-26T07:27:49.743Z,1967.00
2023-04-26T07:28:49.685Z,1983.00
2023-04-26T07:29:49.631Z,1981.00
2023-04-26T07:30:49.593Z,1997.00
2023-04-26T07:31:49.515Z,1995.00
2023-04-26T07:32:49.517Z,2009.00
2023-04-26T07:33:50.026Z,1991.00
2023-04-26T07:34:49.372Z,2004.00
2023-04-26T07:35:49.316Z,1985.00
2023-04-26T07:36:49.975Z,1981.00
2023-04-26T07:37:49.225Z,1995.00
2023-04-26T07:38:49.215Z,1983.00
2023-04-26T07:39:49.134Z,1969.00
2023-04-26T07:40:49.069Z,1982.00
2023-04-26T07:41:49.022Z,1967.00
2023-04-26T07:42:48.967Z,1965.00
2023-04-26T07:43:48.927Z,1966.00
2023-04-26T07:44:48.858Z,1951.00
2023-04-26T07:45:48.824Z,1950.00
2023-04-26T07:46:48.760Z,1948.00
2023-04-26T07:47:48.724Z,1951.00
2023-04-26T07:48:48.644Z,1943.00
2023-04-26T07:49:48.585Z,1935.00
2023-04-26T07:50:48.541Z,1938.00
2023-04-26T07:51:48.493Z,1949.00
2023-04-26T07:52:48.434Z,1930.00
2023-04-26T07:53:48.390Z,1942.00
2023-04-26T07:54:48.339Z,1926.00
2023-04-26T07:55:48.283Z,1918.00
2023-04-26T07:56:48.234Z,1916.00
2023-04-26T07:57:48.935Z,1917.00
2023-04-26T07:58:48.152Z,1912.00
2023-04-26T07:59:48.090Z,1918.00
2023-04-26T08:00:48.047Z,1913.00
2023-04-26T08:01:48.072Z,1906.00
2023-04-26T08:02:48.105Z,1911.00
2023-04-26T08:03:48.083Z,1894.00
2023-04-26T08:04:48.087Z,1906.00
2023-04-26T08:05:48.026Z,1895.00
2023-04-26T08:06:47.775Z,1891.00
2023-04-26T08:07:47.721Z,1889.00
2023-04-26T08:08:47.682Z,1887.00
2023-04-26T08:09:47.645Z,1890.00
2023-04-26T08:10:47.608Z,1895.00
2023-04-26T08:11:47.649Z,1895.00
2023-04-26T08:12:47.527Z,1895.00
2023-04-26T08:13:47.672Z,1885.00
2023-04-26T08:14:47.451Z,1894.00
2023-04-26T08:15:47.403Z,1877.00
2023-04-26T08:16:47.401Z,1890.00
2023-04-26T08:17:47.379Z,1871.00
2023-04-26T08:18:47.938Z,1878.00
2023-04-26T08:19:47.235Z,1879.00
2023-04-26T08:20:47.193Z,1871.00
2023-04-26T08:21:47.144Z,1861.00
2023-04-26T08:22:49.034Z,1865.00
2023-04-26T08:23:47.081Z,1870.00
2023-04-26T08:24:47.030Z,1863.00
2023-04-26T08:25:47.973Z,1852.00
2023-04-26T08:26:46.962Z,1843.00
2023-04-26T08:27:46.921Z,1826.00
2023-04-26T08:28:46.880Z,1828.00
2023-04-26T08:29:46.862Z,1823.00
2023-04-26T08:30:46.884Z,1820.00
2023-04-26T08:31:46.768Z,1813.00
2023-04-26T08:32:46.782Z,1813.00
2023-04-26T08:33:46.695Z,1808.00
2023-04-26T08:34:46.735Z,1802.00
2023-04-26T08:35:46.645Z,1807.00
2023-04-26T08:36:46.593Z,1809.00
2023-04-26T08:37:46.559Z,1800.00
2023-04-26T08:38:46.536Z,1795.00
2023-04-26T08:39:46.499Z,1783.00
2023-04-26T08:40:46.470Z,1767.00
2023-04-26T08:41:46.435Z,1777.00
2023-04-26T08:42:46.412Z,1761.00
2023-04-26T08:43:46.388Z,1766.00
2023-04-26T08:44:46.378Z,1766.00
2023-04-26T08:45:46.338Z,1752.00
2023-04-26T08:46:46.344Z,1750.00
2023-04-26T08:47:46.317Z,1738.00
2023-04-26T08:48:46.241Z,1735.00
2023-04-26T08:49:46.208Z,1734.00
2023-04-26T08:50:46.177Z,1728.00
2023-04-26T08:51:46.141Z,1729.00
2023-04-26T08:52:46.106Z,1715.00
2023-04-26T08:53:46.078Z,1704.00
2023-04-26T08:54:46.048Z,1701.00
2023-04-26T08:55:46.034Z,1695.00
2023-04-26T08:56:45.989Z,1693.00
2023-04-26T08:57:45.961Z,1688.00
2023-04-26T08:58:45.935Z,1680.00
2023-04-26T08:59:45.904Z,1687.00
2023-04-26T09:00:46.864Z,1688.00
2023-04-26T09:01:45.823Z,1690.00
2023-04-26T09:02:46.629Z,1683.00
2023-04-26T09:03:45.814Z,1676.00
2023-04-26T09:04:45.700Z,1670.00
2023-04-26T09:05:45.676Z,1660.00
2023-04-26T09:06:45.575Z,1671.00
2023-04-26T09:07:45.502Z,1662.00
2023-04-26T09:08:45.450Z,1653.00
2023-04-26T09:09:45.395Z,1655.00
2023-04-26T09:10:45.341Z,1657.00
2023-04-26T09:11:45.275Z,1642.00
2023-04-26T09:12:45.232Z,1623.00
2023-04-26T09:13:45.179Z,1627.00
2023-04-26T09:14:45.116Z,1626.00
2023-04-26T09:15:45.087Z,1620.00
2023-04-26T09:16:45.072Z,1611.00
2023-04-26T09:17:45.057Z,1612.00
2023-04-26T09:18:44.899Z,1607.00
2023-04-26T09:19:44.844Z,1601.00
2023-04-26T09:20:44.921Z,1602.00
2023-04-26T09:21:44.784Z,1594.00
2023-04-26T09:22:44.751Z,1583.00
2023-04-26T09:23:44.732Z,1589.00
2023-04-26T09:24:44.702Z,1580.00
2023-04-26T09:25:44.707Z,1561.00
2023-04-26T09:26:44.644Z,1571.00
2023-04-26T09:27:44.629Z,1566.00
2023-04-26T09:28:44.599Z,1562.00
2023-04-26T09:29:44.575Z,1565.00
2023-04-26T09:30:44.558Z,1565.00
2023-04-26T09:31:45.321Z,1551.00
2023-04-26T09:32:44.631Z,1543.00
2023-04-26T09:33:44.555Z,1549.00
2023-04-26T09:34:44.541Z,1541.00
2023-04-26T09:35:44.565Z,1528.00
2023-04-26T09:36:44.489Z,1531.00
2023-04-26T09:37:57.256Z,1519.00
2023-04-26T09:38:45.407Z,1521.00
2023-04-26T09:39:44.365Z,1523.00
2023-04-26T09:40:44.301Z,1521.00
2023-04-26T09:41:44.248Z,1514.00
2023-04-26T09:42:44.197Z,1524.00
2023-04-26T09:43:44.149Z,1501.00
2023-04-26T09:44:44.101Z,1515.00
2023-04-26T09:45:44.050Z,1502.00
2023-04-26T09:46:44.072Z,1489.00
2023-04-26T09:47:43.977Z,1492.00
2023-04-26T09:48:43.889Z,1486.00
2023-04-26T09:49:43.832Z,1473.00
2023-04-26T09:50:44.538Z,1481.00
2023-04-26T09:51:43.745Z,1469.00
2023-04-26T09:52:43.667Z,1486.00
2023-04-26T09:53:43.622Z,1461.00
2023-04-26T09:54:43.565Z,1467.00
2023-04-26T09:55:43.511Z,1454.00
2023-04-26T09:56:43.474Z,1454.00
2023-04-26T09:57:43.442Z,1449.00
2023-04-26T09:58:43.427Z,1434.00
2023-04-26T09:59:43.396Z,1437.00
2023-04-26T10:00:43.434Z,1439.00
2023-04-26T10:01:43.364Z,1449.00
2023-04-26T10:02:43.466Z,1435.00
2023-04-26T10:03:43.529Z,1429.00
2023-04-26T10:04:43.322Z,1423.00
2023-04-26T10:05:43.283Z,1418.00
2023-04-26T10:06:43.247Z,1395.00
2023-04-26T10:07:43.215Z,1399.00
2023-04-26T10:08:43.194Z,1412.00
2023-04-26T10:09:43.167Z,1404.00
2023-04-26T10:10:43.135Z,1395.00
2023-04-26T10:11:43.126Z,1385.00
2023-04-26T10:12:43.113Z,1380.00
2023-04-26T10:13:43.167Z,1384.00
2023-04-26T10:14:43.061Z,1382.00
2023-04-26T10:15:43.013Z,1380.00
2023-04-26T10:16:43.046Z,1368.00
2023-04-26T10:17:42.993Z,1374.00
2023-04-26T10:18:42.968Z,1367.00
2023-04-26T10:19:42.914Z,1358.00
2023-04-26T10:20:42.926Z,1356.00
2023-04-26T10:21:42.866Z,1358.00
2023-04-26T10:22:42.845Z,1352.00
2023-04-26T10:23:42.837Z,1354.00
2023-04-26T10:24:42.804Z,1331.00
2023-04-26T10:25:42.784Z,1338.00
2023-04-26T10:26:42.855Z,1338.00
2023-04-26T10:27:42.735Z,1312.00
2023-04-26T10:28:42.690Z,1328.00
2023-04-26T10:29:42.668Z,1315.00
2023-04-26T10:30:43.610Z,1316.00
2023-04-26T10:31:42.681Z,1318.00
2023-04-26T10:32:42.519Z,1318.00
2023-04-26T10:33:42.474Z,1312.00
2023-04-26T10:34:42.386Z,1303.00
2023-04-26T10:35:42.334Z,1300.00
2023-04-26T10:36:42.278Z,1302.00
2023-04-26T10:37:42.224Z,1293.00
2023-04-26T10:38:42.182Z,1280.00
2023-04-26T10:39:42.126Z,1280.00
2023-04-26T10:40:42.062Z,1277.00
2023-04-26T10:41:42.021Z,1264.00
2023-04-26T10:42:41.982Z,1273.00
2023-04-26T10:43:41.922Z,1264.00
2023-04-26T10:44:41.867Z,1260.00
2023-04-26T10:45:41.842Z,1270.00
2023-04-26T10:46:42.966Z,1271.00
2023-04-26T10:47:41.774Z,1270.00
2023-04-26T10:48:41.673Z,1272.00
2023-04-26T10:49:41.625Z,1247.00
2023-04-26T10:50:41.574Z,1259.00
2023-04-26T10:51:41.538Z,1243.00
2023-04-26T10:52:41.481Z,1246.00
2023-04-26T10:53:41.423Z,1234.00
2023-04-26T10:54:41.370Z,1225.00
2023-04-26T10:55:41.329Z,1218.00
2023-04-26T10:56:41.308Z,1210.00
2023-04-26T10:57:41.221Z,1232.00
2023-04-26T10:58:41.165Z,1217.00
2023-04-26T10:59:53.914Z,1203.00
2023-04-26T11:00:42.064Z,1204.00
2023-04-26T11:01:41.037Z,1207.00
2023-04-26T11:02:41.036Z,1203.00
2023-04-26T11:03:41.244Z,1197.00
2023-04-26T11:04:40.905Z,1185.00
2023-04-26T11:05:40.857Z,1184.00
2023-04-26T11:06:40.752Z,1178.00
2023-04-26T11:07:40.710Z,1181.00
2023-04-26T11:08:40.650Z,1188.00
2023-04-26T11:09:40.726Z,1189.00
2023-04-26T11:10:40.545Z,1176.00
2023-04-26T11:11:40.516Z,1174.00
2023-04-26T11:12:40.433Z,1168.00
2023-04-26T11:13:40.384Z,1169.00
2023-04-26T11:14:40.343Z,1171.00
2023-04-26T11:15:40.614Z,1168.00
2023-04-26T11:16:40.283Z,1161.00
2023-04-26T11:17:40.250Z,1155.00
2023-04-26T11:18:40.122Z,1151.00
2023-04-26T11:19:40.164Z,1159.00
2023-04-26T11:20:40.036Z,1139.00
2023-04-26T11:21:39.967Z,1150.00
2023-04-26T11:22:39.902Z,1145.00
2023-04-26T11:23:39.853Z,1140.00
2023-04-26T11:24:39.826Z,1141.00
2023-04-26T11:25:39.741Z,1138.00
2023-04-26T11:26:39.683Z,1124.00
2023-04-26T11:27:39.659Z,1107.00
2023-04-26T11:28:39.580Z,1111.00
2023-04-26T11:29:39.565Z,1128.00
2023-04-26T11:30:39.517Z,1112.00
2023-04-26T11:31:39.469Z,1122.00
2023-04-26T11:32:39.359Z,1118.00
2023-04-26T11:33:39.337Z,1106.00
2023-04-26T11:34:39.345Z,1100.00
2023-04-26T11:35:39.220Z,1091.00
2023-04-26T11:36:39.165Z,1098.00
2023-04-26T11:37:39.116Z,1097.00
2023-04-26T11:38:39.070Z,1091.00
2023-04-26T11:39:39.028Z,1090.00
2023-04-26T11:40:38.984Z,1088.00
2023-04-26T11:41:38.926Z,1085.00
2023-04-26T11:42:38.884Z,1090.00
2023-04-26T11:43:38.930Z,1074.00
2023-04-26T11:44:38.784Z,1075.00
2023-04-26T11:45:38.728Z,1076.00
2023-04-26T11:46:38.804Z,1075.00
2023-04-26T11:47:38.711Z,1075.00
2023-04-26T11:48:38.616Z,1067.00
2023-04-26T11:49:38.550Z,1084.00
2023-04-26T11:50:38.526Z,1063.00
2023-04-26T11:51:38.527Z,1048.00
2023-04-26T11:52:38.437Z,1050.00
2023-04-26T11:53:38.424Z,1054.00
2023-04-26T11:54:38.326Z,1044.00
2023-04-26T11:55:38.276Z,1034.00
2023-04-26T11:56:38.232Z,1042.00
2023-04-26T11:57:38.172Z,1041.00
2023-04-26T11:58:38.131Z,1034.00
2023-04-26T11:59:38.074Z,1050.00
2023-04-26T12:00:38.024Z,1041.00
2023-04-26T12:01:38.034Z,1044.00
2023-04-26T12:02:38.116Z,1033.00
2023-04-26T12:03:38.280Z,1032.00
2023-04-26T12:04:38.093Z,1023.00
2023-04-26T12:05:37.849Z,1024.00
2023-04-26T12:06:37.717Z,1035.00
2023-04-26T12:07:37.681Z,1021.00
2023-04-26T12:08:37.609Z,1014.00
2023-04-26T12:09:37.558Z,1036.00
2023-04-26T12:10:37.515Z,1026.00
2023-04-26T12:11:37.477Z,1010.00
2023-04-26T12:12:37.408Z,1021.00